sensor_id;sensor_type;location;lat;lon;timestamp;pressure;altitude;pressure_sealevel;temperature;humidity
12722;BME280;6425;50.316;8.114;2023-04-09T00:00:00;998;;;7.4;74.1
12722;BME280;6425;50.316;8.114;2023-04-09T00:03:00;999;;;7.5;74.1
12722;BME280;6425;50.316;8.114;2023-04-09T00:06:00;998;;;7.4;74.2
12722;BME280;6425;50.316;8.114;2023-04-09T00:09:00;998;;;7.5;73.7
12722;BME280;6425;50.316;8.114;2023-04-09T00:12:00;998;;;7.9;72.6
12722;BME280;6425;50.316;8.114;2023-04-09T00:15:00;998;;;7.9;71.8
12722;BME280;6425;50.316;8.114;2023-04-09T00:18:00;998;;;7.8;72.3
12722;BME280;6425;50.316;8.114;2023-04-09T00:21:00;998;;;8.1;71.5
12722;BME280;6425;50.316;8.114;2023-04-09T00:24:00;998;;;8.3;70.6
12722;BME280;6425;50.316;8.114;2023-04-09T00:27:00;998;;;7;76
12722;BME280;6425;50.316;8.114;2023-04-09T00:30:00;998;;;6.4;81.1
12722;BME280;6425;50.316;8.114;2023-04-09T00:33:00;998;;;6.4;82
12722;BME280;6425;50.316;8.114;2023-04-09T00:36:00;998;;;6.7;81.5
12722;BME280;6425;50.316;8.114;2023-04-09T00:39:00;998;;;6.9;80.6
12722;BME280;6425;50.316;8.114;2023-04-09T00:42:00;998;;;7.6;78.3
12722;BME280;6425;50.316;8.114;2023-04-09T00:45:00;998;;;7.8;76.3
12722;BME280;6425;50.316;8.114;2023-04-09T00:48:00;998;;;7.5;75.7
12722;BME280;6425;50.316;8.114;2023-04-09T00:51:00;998;;;7.3;77.2
12722;BME280;6425;50.316;8.114;2023-04-09T00:54:00;998;;;7.7;76.7
12722;BME280;6425;50.316;8.114;2023-04-09T00:57:00;998;;;7.8;75.3
12722;BME280;6425;50.316;8.114;2023-04-09T01:00:00;998;;;7.9;76.7
12722;BME280;6425;50.316;8.114;2023-04-09T01:03:00;998;;;7.4;76.3
12722;BME280;6425;50.316;8.114;2023-04-09T01:06:03;998;;;6.8;79.6
12722;BME280;6425;50.316;8.114;2023-04-09T01:09:01;998;;;7.5;79.9
12722;BME280;6425;50.316;8.114;2023-04-09T01:12:01;998;;;8.1;77.5
12722;BME280;6425;50.316;8.114;2023-04-09T01:15:02;998;;;8.3;75
12722;BME280;6425;50.316;8.114;2023-04-09T01:18:01;998;;;8.4;73.7
12722;BME280;6425;50.316;8.114;2023-04-09T01:21:01;998;;;8.6;73.3
12722;BME280;6425;50.316;8.114;2023-04-09T01:24:02;998;;;8.6;73.1
12722;BME280;6425;50.316;8.114;2023-04-09T01:27:01;998;;;8.2;74.2
12722;BME280;6425;50.316;8.114;2023-04-09T01:30:00;998;;;7.8;76.9
12722;BME280;6425;50.316;8.114;2023-04-09T01:33:00;998;;;8;76.4
12722;BME280;6425;50.316;8.114;2023-04-09T01:36:00;998;;;8.2;75.7
12722;BME280;6425;50.316;8.114;2023-04-09T01:39:00;998;;;8.3;74.7
12722;BME280;6425;50.316;8.114;2023-04-09T01:42:00;998;;;8.3;74.5
12722;BME280;6425;50.316;8.114;2023-04-09T01:45:00;998;;;8.1;75
12722;BME280;6425;50.316;8.114;2023-04-09T01:48:00;998;;;8;75.7
12722;BME280;6425;50.316;8.114;2023-04-09T01:51:00;998;;;8.1;76
12722;BME280;6425;50.316;8.114;2023-04-09T01:54:00;998;;;7.7;76.7
12722;BME280;6425;50.316;8.114;2023-04-09T01:57:00;998;;;7.5;78.2
12722;BME280;6425;50.316;8.114;2023-04-09T02:00:00;998;;;7.3;78.6
12722;BME280;6425;50.316;8.114;2023-04-09T02:03:00;998;;;7.2;79.3
12722;BME280;6425;50.316;8.114;2023-04-09T02:06:00;998;;;7.3;79
12722;BME280;6425;50.316;8.114;2023-04-09T02:09:00;998;;;7.4;77.9
12722;BME280;6425;50.316;8.114;2023-04-09T02:12:01;998;;;7.4;78.7
12722;BME280;6425;50.316;8.114;2023-04-09T02:15:00;998;;;7.6;78.4
12722;BME280;6425;50.316;8.114;2023-04-09T02:18:00;998;;;7.6;77.7
12722;BME280;6425;50.316;8.114;2023-04-09T02:21:00;998;;;7;79.2
12722;BME280;6425;50.316;8.114;2023-04-09T02:24:00;998;;;7.2;80.8
12722;BME280;6425;50.316;8.114;2023-04-09T02:27:00;998;;;7.5;79.1
12722;BME280;6425;50.316;8.114;2023-04-09T02:30:00;998;;;7.3;78.3
12722;BME280;6425;50.316;8.114;2023-04-09T02:33:00;998;;;7.2;79
12722;BME280;6425;50.316;8.114;2023-04-09T02:36:00;998;;;7.1;79.4
12722;BME280;6425;50.316;8.114;2023-04-09T02:39:00;998;;;6.9;79.5
12722;BME280;6425;50.316;8.114;2023-04-09T02:42:00;998;;;6.9;80
12722;BME280;6425;50.316;8.114;2023-04-09T02:45:00;998;;;7;80
12722;BME280;6425;50.316;8.114;2023-04-09T02:48:00;998;;;7.2;79.7
12722;BME280;6425;50.316;8.114;2023-04-09T02:51:00;998;;;7.2;79.1
12722;BME280;6425;50.316;8.114;2023-04-09T02:54:00;998;;;7.2;78.9
12722;BME280;6425;50.316;8.114;2023-04-09T02:57:00;998;;;7.5;79.1
12722;BME280;6425;50.316;8.114;2023-04-09T03:00:00;998;;;7.6;78.4
12722;BME280;6425;50.316;8.114;2023-04-09T03:03:00;998;;;7.7;77.7
12722;BME280;6425;50.316;8.114;2023-04-09T03:06:00;998;;;7.8;76.8
12722;BME280;6425;50.316;8.114;2023-04-09T03:09:00;998;;;7.7;76.8
12722;BME280;6425;50.316;8.114;2023-04-09T03:12:00;998;;;7.2;78.1
12722;BME280;6425;50.316;8.114;2023-04-09T03:15:00;998;;;7.2;78.3
12722;BME280;6425;50.316;8.114;2023-04-09T03:18:00;998;;;7.1;78.6
12722;BME280;6425;50.316;8.114;2023-04-09T03:21:03;998;;;7.1;78.7
12722;BME280;6425;50.316;8.114;2023-04-09T03:24:00;998;;;7.3;78.4
12722;BME280;6425;50.316;8.114;2023-04-09T03:27:00;998;;;7.4;77.9
12722;BME280;6425;50.316;8.114;2023-04-09T03:30:00;998;;;7.4;77.9
12722;BME280;6425;50.316;8.114;2023-04-09T03:33:00;998;;;7.6;77.4
12722;BME280;6425;50.316;8.114;2023-04-09T03:36:00;998;;;7.8;76.6
12722;BME280;6425;50.316;8.114;2023-04-09T03:39:00;998;;;7.3;77.9
12722;BME280;6425;50.316;8.114;2023-04-09T03:42:00;998;;;7.1;77.9
12722;BME280;6425;50.316;8.114;2023-04-09T03:45:00;998;;;7.1;77.9
12722;BME280;6425;50.316;8.114;2023-04-09T03:48:00;998;;;7;77.6
12722;BME280;6425;50.316;8.114;2023-04-09T03:51:00;998;;;6.8;78
12722;BME280;6425;50.316;8.114;2023-04-09T03:54:00;998;;;6.8;78.9
12722;BME280;6425;50.316;8.114;2023-04-09T03:57:00;998;;;6.7;79.7
12722;BME280;6425;50.316;8.114;2023-04-09T04:00:00;998;;;6.7;79.7
12722;BME280;6425;50.316;8.114;2023-04-09T04:03:00;998;;;6.7;79.2
12722;BME280;6425;50.316;8.114;2023-04-09T04:06:00;998;;;6.8;79
12722;BME280;6425;50.316;8.114;2023-04-09T04:09:00;998;;;7.1;78.1
12722;BME280;6425;50.316;8.114;2023-04-09T04:12:00;998;;;7.1;77.3
12722;BME280;6425;50.316;8.114;2023-04-09T04:15:00;998;;;7.1;76.8
12722;BME280;6425;50.316;8.114;2023-04-09T04:18:00;998;;;7;76.7
12722;BME280;6425;50.316;8.114;2023-04-09T04:21:00;998;;;7;76.4
12722;BME280;6425;50.316;8.114;2023-04-09T04:24:00;998;;;7.4;75.1
12722;BME280;6425;50.316;8.114;2023-04-09T04:27:00;998;;;7.4;74.1
12722;BME280;6425;50.316;8.114;2023-04-09T04:30:00;998;;;6.7;75.7
12722;BME280;6425;50.316;8.114;2023-04-09T04:33:00;998;;;6;78.6
12722;BME280;6425;50.316;8.114;2023-04-09T04:36:03;998;;;5.5;80.7
12722;BME280;6425;50.316;8.114;2023-04-09T04:39:00;998;;;5.4;81.8
12722;BME280;6425;50.316;8.114;2023-04-09T04:42:00;998;;;5.8;81.1
12722;BME280;6425;50.316;8.114;2023-04-09T04:45:01;998;;;5.9;79.5
12722;BME280;6425;50.316;8.114;2023-04-09T04:48:00;998;;;5.8;78.6
12722;BME280;6425;50.316;8.114;2023-04-09T04:51:00;998;;;5.6;79.3
12722;BME280;6425;50.316;8.114;2023-04-09T04:54:00;998;;;5.5;79
12722;BME280;6425;50.316;8.114;2023-04-09T04:57:00;998;;;5.7;78.5
12722;BME280;6425;50.316;8.114;2023-04-09T05:00:00;998;;;5.4;78.9
12722;BME280;6425;50.316;8.114;2023-04-09T05:03:00;998;;;5.3;78.8
12722;BME280;6425;50.316;8.114;2023-04-09T05:06:00;998;;;5.2;79.3
12722;BME280;6425;50.316;8.114;2023-04-09T05:09:00;998;;;4.8;79.9
12722;BME280;6425;50.316;8.114;2023-04-09T05:12:00;998;;;4.3;82.4
12722;BME280;6425;50.316;8.114;2023-04-09T05:15:00;998;;;4.1;83.6
12722;BME280;6425;50.316;8.114;2023-04-09T05:18:00;998;;;3.9;84.9
12722;BME280;6425;50.316;8.114;2023-04-09T05:21:00;998;;;4.1;85.6
12722;BME280;6425;50.316;8.114;2023-04-09T05:24:00;998;;;4.1;83.2
12722;BME280;6425;50.316;8.114;2023-04-09T05:27:00;998;;;3.8;83
12722;BME280;6425;50.316;8.114;2023-04-09T05:30:00;998;;;3.6;86.3
12722;BME280;6425;50.316;8.114;2023-04-09T05:33:00;998;;;4.2;86.3
12722;BME280;6425;50.316;8.114;2023-04-09T05:36:00;998;;;4.7;85.4
12722;BME280;6425;50.316;8.114;2023-04-09T05:39:00;998;;;5.1;83.1
12722;BME280;6425;50.316;8.114;2023-04-09T05:42:00;998;;;5.3;82.5
12722;BME280;6425;50.316;8.114;2023-04-09T05:45:00;998;;;5.7;80.9
12722;BME280;6425;50.316;8.114;2023-04-09T05:48:00;998;;;6;79.9
12722;BME280;6425;50.316;8.114;2023-04-09T05:51:00;998;;;6.1;76.6
12722;BME280;6425;50.316;8.114;2023-04-09T05:54:00;998;;;5.4;77.2
12722;BME280;6425;50.316;8.114;2023-04-09T05:57:00;998;;;5.4;79.1
12722;BME280;6425;50.316;8.114;2023-04-09T06:00:00;998;;;5.9;79.5
12722;BME280;6425;50.316;8.114;2023-04-09T06:03:00;998;;;6.3;78.1
12722;BME280;6425;50.316;8.114;2023-04-09T06:06:00;998;;;6.8;77.4
12722;BME280;6425;50.316;8.114;2023-04-09T06:09:00;998;;;7.5;75.3
12722;BME280;6425;50.316;8.114;2023-04-09T06:12:00;998;;;7.9;73.9
12722;BME280;6425;50.316;8.114;2023-04-09T06:15:00;998;;;8.3;72.2
12722;BME280;6425;50.316;8.114;2023-04-09T06:18:00;998;;;8.9;69.4
12722;BME280;6425;50.316;8.114;2023-04-09T06:21:00;998;;;8.3;69
12722;BME280;6425;50.316;8.114;2023-04-09T06:24:00;998;;;6.9;73.4
12722;BME280;6425;50.316;8.114;2023-04-09T06:27:00;998;;;6.8;76.1
12722;BME280;6425;50.316;8.114;2023-04-09T06:30:00;998;;;5.5;81.5
12722;BME280;6425;50.316;8.114;2023-04-09T06:33:00;998;;;5.3;84.9
12722;BME280;6425;50.316;8.114;2023-04-09T06:36:00;998;;;6;85.2
12722;BME280;6425;50.316;8.114;2023-04-09T06:39:00;998;;;6;84.7
12722;BME280;6425;50.316;8.114;2023-04-09T06:42:00;998;;;7.1;83.1
12722;BME280;6425;50.316;8.114;2023-04-09T06:45:00;998;;;8.1;79
12722;BME280;6425;50.316;8.114;2023-04-09T06:48:00;999;;;7.7;76.4
12722;BME280;6425;50.316;8.114;2023-04-09T06:51:00;998;;;7.8;76.4
12722;BME280;6425;50.316;8.114;2023-04-09T06:54:00;999;;;8.2;75.8
12722;BME280;6425;50.316;8.114;2023-04-09T06:57:00;998;;;9.3;70.9
12722;BME280;6425;50.316;8.114;2023-04-09T07:00:00;998;;;9.7;68.6
12722;BME280;6425;50.316;8.114;2023-04-09T07:03:00;998;;;10.5;66.1
12722;BME280;6425;50.316;8.114;2023-04-09T07:06:00;998;;;10.7;64
12722;BME280;6425;50.316;8.114;2023-04-09T07:09:00;998;;;10.8;63.1
12722;BME280;6425;50.316;8.114;2023-04-09T07:12:00;998;;;10.7;64.4
12722;BME280;6425;50.316;8.114;2023-04-09T07:15:00;998;;;10.9;63.6
12722;BME280;6425;50.316;8.114;2023-04-09T07:18:00;998;;;11.3;63.1
12722;BME280;6425;50.316;8.114;2023-04-09T07:21:00;998;;;10.6;64.1
12722;BME280;6425;50.316;8.114;2023-04-09T07:24:00;998;;;10.4;64.7
12722;BME280;6425;50.316;8.114;2023-04-09T07:27:02;998;;;10.5;65.3
12722;BME280;6425;50.316;8.114;2023-04-09T07:30:00;998;;;11;63
12722;BME280;6425;50.316;8.114;2023-04-09T07:33:00;998;;;11.1;63
12722;BME280;6425;50.316;8.114;2023-04-09T07:36:00;998;;;11.9;61.2
12722;BME280;6425;50.316;8.114;2023-04-09T07:39:00;998;;;11.9;60.7
12722;BME280;6425;50.316;8.114;2023-04-09T07:42:00;998;;;11.6;62.3
12722;BME280;6425;50.316;8.114;2023-04-09T07:45:00;999;;;8.9;69.2
12722;BME280;6425;50.316;8.114;2023-04-09T07:48:00;999;;;7.8;76.6
12722;BME280;6425;50.316;8.114;2023-04-09T07:51:00;999;;;7.4;79.4
12722;BME280;6425;50.316;8.114;2023-04-09T07:54:00;998;;;7.6;80.2
12722;BME280;6425;50.316;8.114;2023-04-09T07:57:00;998;;;8.3;78.6
12722;BME280;6425;50.316;8.114;2023-04-09T08:00:00;998;;;8.3;77.5
12722;BME280;6425;50.316;8.114;2023-04-09T08:03:00;998;;;9.5;74
12722;BME280;6425;50.316;8.114;2023-04-09T08:06:00;998;;;10.7;68.6
12722;BME280;6425;50.316;8.114;2023-04-09T08:09:00;998;;;12.1;64.2
12722;BME280;6425;50.316;8.114;2023-04-09T08:12:00;998;;;12.6;60.8
12722;BME280;6425;50.316;8.114;2023-04-09T08:15:00;998;;;12.5;61.3
12722;BME280;6425;50.316;8.114;2023-04-09T08:18:00;998;;;11.8;61.6
12722;BME280;6425;50.316;8.114;2023-04-09T08:21:02;998;;;12.1;60.9
12722;BME280;6425;50.316;8.114;2023-04-09T08:24:00;998;;;12.3;60
12722;BME280;6425;50.316;8.114;2023-04-09T08:27:00;998;;;13;59
12722;BME280;6425;50.316;8.114;2023-04-09T08:30:00;998;;;12.7;57.3
12722;BME280;6425;50.316;8.114;2023-04-09T08:33:00;998;;;12.4;59.5
12722;BME280;6425;50.316;8.114;2023-04-09T08:36:00;998;;;13;57.6
12722;BME280;6425;50.316;8.114;2023-04-09T08:39:00;998;;;12.9;57
12722;BME280;6425;50.316;8.114;2023-04-09T08:42:00;998;;;12.9;56.3
12722;BME280;6425;50.316;8.114;2023-04-09T08:45:02;998;;;13.1;58.2
12722;BME280;6425;50.316;8.114;2023-04-09T08:48:00;998;;;13.7;56.1
12722;BME280;6425;50.316;8.114;2023-04-09T08:51:00;998;;;13.7;54
12722;BME280;6425;50.316;8.114;2023-04-09T08:54:00;998;;;13.1;57.9
12722;BME280;6425;50.316;8.114;2023-04-09T08:57:03;998;;;13;57.7
12722;BME280;6425;50.316;8.114;2023-04-09T09:00:00;998;;;13.2;55.1
12722;BME280;6425;50.316;8.114;2023-04-09T09:03:00;998;;;13;53.5
12722;BME280;6425;50.316;8.114;2023-04-09T09:06:00;998;;;12.6;54
12722;BME280;6425;50.316;8.114;2023-04-09T09:09:04;998;;;12.3;56
12722;BME280;6425;50.316;8.114;2023-04-09T09:12:00;998;;;12.4;55.3
12722;BME280;6425;50.316;8.114;2023-04-09T09:15:00;998;;;12.6;55
12722;BME280;6425;50.316;8.114;2023-04-09T09:18:00;998;;;13.1;53.3
12722;BME280;6425;50.316;8.114;2023-04-09T09:21:08;998;;;13.1;53.3
12722;BME280;6425;50.316;8.114;2023-04-09T09:24:00;998;;;12.3;54.2
12722;BME280;6425;50.316;8.114;2023-04-09T09:27:00;998;;;12.1;55.8
12722;BME280;6425;50.316;8.114;2023-04-09T09:30:00;999;;;11.8;55.9
12722;BME280;6425;50.316;8.114;2023-04-09T09:33:03;998;;;12;56.1
12722;BME280;6425;50.316;8.114;2023-04-09T09:36:00;998;;;12.1;53.7
12722;BME280;6425;50.316;8.114;2023-04-09T09:39:00;998;;;11.9;53.6
12722;BME280;6425;50.316;8.114;2023-04-09T09:42:05;998;;;12.1;52.8
12722;BME280;6425;50.316;8.114;2023-04-09T09:45:00;998;;;12.2;51.5
12722;BME280;6425;50.316;8.114;2023-04-09T09:48:00;998;;;12;51.8
12722;BME280;6425;50.316;8.114;2023-04-09T09:51:00;998;;;12.1;53.7
12722;BME280;6425;50.316;8.114;2023-04-09T09:54:00;998;;;12.1;53.6
12722;BME280;6425;50.316;8.114;2023-04-09T09:57:00;998;;;11.8;54.4
12722;BME280;6425;50.316;8.114;2023-04-09T10:00:00;998;;;11.6;53.2
12722;BME280;6425;50.316;8.114;2023-04-09T10:03:03;998;;;11.4;55.9
12722;BME280;6425;50.316;8.114;2023-04-09T10:06:00;998;;;11.6;55.4
12722;BME280;6425;50.316;8.114;2023-04-09T10:09:03;998;;;11.6;54.9
12722;BME280;6425;50.316;8.114;2023-04-09T10:12:00;998;;;11.6;52.4
12722;BME280;6425;50.316;8.114;2023-04-09T10:15:00;998;;;11.9;52.2
12722;BME280;6425;50.316;8.114;2023-04-09T10:18:00;998;;;11.8;54.5
12722;BME280;6425;50.316;8.114;2023-04-09T10:21:00;998;;;11.8;54.5
12722;BME280;6425;50.316;8.114;2023-04-09T10:24:00;998;;;12.1;53.5
12722;BME280;6425;50.316;8.114;2023-04-09T10:27:08;998;;;12.2;53.3
12722;BME280;6425;50.316;8.114;2023-04-09T10:30:00;998;;;12.3;53.1
12722;BME280;6425;50.316;8.114;2023-04-09T10:33:08;998;;;12;53.8
12722;BME280;6425;50.316;8.114;2023-04-09T10:36:01;998;;;11.9;54.6
12722;BME280;6425;50.316;8.114;2023-04-09T10:39:00;998;;;12.5;53
12722;BME280;6425;50.316;8.114;2023-04-09T10:42:00;998;;;13.1;50.4
12722;BME280;6425;50.316;8.114;2023-04-09T10:45:03;998;;;12.4;50.3
12722;BME280;6425;50.316;8.114;2023-04-09T10:48:00;998;;;12.4;49.7
12722;BME280;6425;50.316;8.114;2023-04-09T10:51:01;998;;;11.9;51
12722;BME280;6425;50.316;8.114;2023-04-09T10:54:00;998;;;12.5;49
12722;BME280;6425;50.316;8.114;2023-04-09T10:57:16;998;;;12.5;48.8
12722;BME280;6425;50.316;8.114;2023-04-09T11:00:00;998;;;12.5;47.5
12722;BME280;6425;50.316;8.114;2023-04-09T11:03:05;998;;;12.7;47.5
12722;BME280;6425;50.316;8.114;2023-04-09T11:06:01;998;;;13.7;48.4
12722;BME280;6425;50.316;8.114;2023-04-09T11:09:00;998;;;14.4;46.1
12722;BME280;6425;50.316;8.114;2023-04-09T11:12:00;998;;;14.4;44.3
12722;BME280;6425;50.316;8.114;2023-04-09T11:15:00;998;;;13.7;45.9
12722;BME280;6425;50.316;8.114;2023-04-09T11:18:00;998;;;12.8;49.1
12722;BME280;6425;50.316;8.114;2023-04-09T11:21:00;998;;;12.7;47.7
12722;BME280;6425;50.316;8.114;2023-04-09T11:24:00;998;;;12.6;48
12722;BME280;6425;50.316;8.114;2023-04-09T11:27:00;998;;;12.8;48.1
12722;BME280;6425;50.316;8.114;2023-04-09T11:30:00;998;;;12.7;49.5
12722;BME280;6425;50.316;8.114;2023-04-09T11:33:00;998;;;12.4;47.9
12722;BME280;6425;50.316;8.114;2023-04-09T11:36:00;998;;;12.5;48.3
12722;BME280;6425;50.316;8.114;2023-04-09T11:39:00;998;;;12.1;48.7
12722;BME280;6425;50.316;8.114;2023-04-09T11:42:00;998;;;11.9;50.2
12722;BME280;6425;50.316;8.114;2023-04-09T11:45:00;998;;;11.9;48.8
12722;BME280;6425;50.316;8.114;2023-04-09T11:48:00;998;;;11.7;49
12722;BME280;6425;50.316;8.114;2023-04-09T11:51:00;998;;;11.7;48.6
12722;BME280;6425;50.316;8.114;2023-04-09T11:54:00;998;;;12;48.7
12722;BME280;6425;50.316;8.114;2023-04-09T11:57:02;998;;;12.1;49.2
12722;BME280;6425;50.316;8.114;2023-04-09T12:00:03;998;;;12.1;47.9
12722;BME280;6425;50.316;8.114;2023-04-09T12:03:00;998;;;12.2;47.5
12722;BME280;6425;50.316;8.114;2023-04-09T12:06:00;998;;;12.2;48.7
12722;BME280;6425;50.316;8.114;2023-04-09T12:09:00;998;;;12.3;47.8
12722;BME280;6425;50.316;8.114;2023-04-09T12:12:00;998;;;12.6;47.2
12722;BME280;6425;50.316;8.114;2023-04-09T12:15:05;998;;;12.7;47.1
12722;BME280;6425;50.316;8.114;2023-04-09T12:18:00;998;;;12.9;47.2
12722;BME280;6425;50.316;8.114;2023-04-09T12:21:00;998;;;13;46.6
12722;BME280;6425;50.316;8.114;2023-04-09T12:24:00;998;;;12.8;44.7
12722;BME280;6425;50.316;8.114;2023-04-09T12:27:00;998;;;13;44.8
12722;BME280;6425;50.316;8.114;2023-04-09T12:30:00;998;;;13.1;45.5
12722;BME280;6425;50.316;8.114;2023-04-09T12:33:00;998;;;13;44.8
12722;BME280;6425;50.316;8.114;2023-04-09T12:36:00;998;;;13;46.3
12722;BME280;6425;50.316;8.114;2023-04-09T12:39:00;998;;;12.9;45
12722;BME280;6425;50.316;8.114;2023-04-09T12:42:00;998;;;13.2;44.4
12722;BME280;6425;50.316;8.114;2023-04-09T12:45:00;998;;;13.6;42.5
12722;BME280;6425;50.316;8.114;2023-04-09T12:48:00;998;;;13.1;43.3
12722;BME280;6425;50.316;8.114;2023-04-09T12:51:00;998;;;13.6;43.1
12722;BME280;6425;50.316;8.114;2023-04-09T12:54:00;998;;;14.1;41.7
12722;BME280;6425;50.316;8.114;2023-04-09T12:57:00;998;;;13.6;43.9
12722;BME280;6425;50.316;8.114;2023-04-09T13:00:00;998;;;13.6;44.8
12722;BME280;6425;50.316;8.114;2023-04-09T13:03:00;998;;;12.8;44.4
12722;BME280;6425;50.316;8.114;2023-04-09T13:06:00;997;;;12.6;44
12722;BME280;6425;50.316;8.114;2023-04-09T13:09:00;997;;;13;44.3
12722;BME280;6425;50.316;8.114;2023-04-09T13:12:00;998;;;12.9;44.1
12722;BME280;6425;50.316;8.114;2023-04-09T13:15:00;998;;;12.5;45.2
12722;BME280;6425;50.316;8.114;2023-04-09T13:18:00;998;;;13;45.1
12722;BME280;6425;50.316;8.114;2023-04-09T13:21:00;998;;;13.5;44.8
12722;BME280;6425;50.316;8.114;2023-04-09T13:24:00;998;;;12.9;45.8
12722;BME280;6425;50.316;8.114;2023-04-09T13:27:00;998;;;12.6;47.1
12722;BME280;6425;50.316;8.114;2023-04-09T13:30:00;998;;;12.6;47.2
12722;BME280;6425;50.316;8.114;2023-04-09T13:33:00;997;;;12.8;47.7
12722;BME280;6425;50.316;8.114;2023-04-09T13:36:00;998;;;12.8;48.1
12722;BME280;6425;50.316;8.114;2023-04-09T13:39:00;997;;;12.6;47.7
12722;BME280;6425;50.316;8.114;2023-04-09T13:42:00;998;;;12.8;46.5
12722;BME280;6425;50.316;8.114;2023-04-09T13:45:00;997;;;12.7;46.3
12722;BME280;6425;50.316;8.114;2023-04-09T13:48:00;997;;;13.1;44.7
12722;BME280;6425;50.316;8.114;2023-04-09T13:51:00;997;;;13.9;44.6
12722;BME280;6425;50.316;8.114;2023-04-09T13:54:00;997;;;13.6;43.7
12722;BME280;6425;50.316;8.114;2023-04-09T13:57:00;997;;;13.6;44.8
12722;BME280;6425;50.316;8.114;2023-04-09T14:00:00;997;;;13.5;45.1
12722;BME280;6425;50.316;8.114;2023-04-09T14:03:00;997;;;13;45.6
12722;BME280;6425;50.316;8.114;2023-04-09T14:06:00;997;;;12.8;47.1
12722;BME280;6425;50.316;8.114;2023-04-09T14:09:00;997;;;12.6;48
12722;BME280;6425;50.316;8.114;2023-04-09T14:12:00;997;;;12.6;46
12722;BME280;6425;50.316;8.114;2023-04-09T14:15:00;997;;;12.9;46.1
12722;BME280;6425;50.316;8.114;2023-04-09T14:18:00;997;;;12.9;46
12722;BME280;6425;50.316;8.114;2023-04-09T14:21:00;997;;;13.1;46.1
12722;BME280;6425;50.316;8.114;2023-04-09T14:24:00;997;;;13.3;46.6
12722;BME280;6425;50.316;8.114;2023-04-09T14:27:00;997;;;13;43.7
12722;BME280;6425;50.316;8.114;2023-04-09T14:30:00;997;;;13;44.4
12722;BME280;6425;50.316;8.114;2023-04-09T14:33:00;997;;;13.6;43.7
12722;BME280;6425;50.316;8.114;2023-04-09T14:36:00;997;;;13.5;44.4
12722;BME280;6425;50.316;8.114;2023-04-09T14:39:00;997;;;13.3;43.1
12722;BME280;6425;50.316;8.114;2023-04-09T14:42:00;997;;;13.3;44.3
12722;BME280;6425;50.316;8.114;2023-04-09T14:45:00;997;;;13.2;44.1
12722;BME280;6425;50.316;8.114;2023-04-09T14:48:00;997;;;12.7;45.2
12722;BME280;6425;50.316;8.114;2023-04-09T14:51:00;997;;;12.7;44.4
12722;BME280;6425;50.316;8.114;2023-04-09T14:54:00;997;;;12.8;44.9
12722;BME280;6425;50.316;8.114;2023-04-09T14:57:00;997;;;13.1;44.6
12722;BME280;6425;50.316;8.114;2023-04-09T15:00:00;997;;;14.1;43.5
12722;BME280;6425;50.316;8.114;2023-04-09T15:03:00;997;;;15.2;41.9
12722;BME280;6425;50.316;8.114;2023-04-09T15:06:00;997;;;15.7;39.7
12722;BME280;6425;50.316;8.114;2023-04-09T15:09:00;997;;;16.6;37.9
12722;BME280;6425;50.316;8.114;2023-04-09T15:12:00;997;;;17;36.1
12722;BME280;6425;50.316;8.114;2023-04-09T15:15:00;997;;;17.9;35
12722;BME280;6425;50.316;8.114;2023-04-09T15:18:00;997;;;18.1;34.2
12722;BME280;6425;50.316;8.114;2023-04-09T15:21:00;997;;;18.5;33.1
12722;BME280;6425;50.316;8.114;2023-04-09T15:24:00;997;;;16.9;35.4
12722;BME280;6425;50.316;8.114;2023-04-09T15:27:00;997;;;15.7;37.5
12722;BME280;6425;50.316;8.114;2023-04-09T15:30:00;997;;;15.8;38.5
12722;BME280;6425;50.316;8.114;2023-04-09T15:33:00;997;;;15.2;38.7
12722;BME280;6425;50.316;8.114;2023-04-09T15:36:00;997;;;15.7;38.8
12722;BME280;6425;50.316;8.114;2023-04-09T15:39:00;997;;;15.8;37.8
12722;BME280;6425;50.316;8.114;2023-04-09T15:42:00;997;;;15.9;37.6
12722;BME280;6425;50.316;8.114;2023-04-09T15:45:00;997;;;16.8;36.9
12722;BME280;6425;50.316;8.114;2023-04-09T15:48:00;997;;;16.6;37.2
12722;BME280;6425;50.316;8.114;2023-04-09T15:51:00;997;;;16.5;37
12722;BME280;6425;50.316;8.114;2023-04-09T15:54:00;997;;;16.8;36.1
12722;BME280;6425;50.316;8.114;2023-04-09T15:57:00;997;;;16.3;37.7
12722;BME280;6425;50.316;8.114;2023-04-09T16:00:00;997;;;16.9;36.3
12722;BME280;6425;50.316;8.114;2023-04-09T16:03:00;996;;;16.7;36.1
12722;BME280;6425;50.316;8.114;2023-04-09T16:06:00;997;;;16.9;37.1
12722;BME280;6425;50.316;8.114;2023-04-09T16:09:00;997;;;16.6;38.5
12722;BME280;6425;50.316;8.114;2023-04-09T16:12:00;996;;;15.4;39.8
12722;BME280;6425;50.316;8.114;2023-04-09T16:15:00;997;;;15.6;38.9
12722;BME280;6425;50.316;8.114;2023-04-09T16:18:00;997;;;16.9;37.3
12722;BME280;6425;50.316;8.114;2023-04-09T16:21:00;997;;;17.1;35.7
12722;BME280;6425;50.316;8.114;2023-04-09T16:24:00;997;;;16.8;37
12722;BME280;6425;50.316;8.114;2023-04-09T16:27:00;997;;;17.3;36.2
12722;BME280;6425;50.316;8.114;2023-04-09T16:30:00;997;;;17.5;36.4
12722;BME280;6425;50.316;8.114;2023-04-09T16:33:00;996;;;17.6;36.1
12722;BME280;6425;50.316;8.114;2023-04-09T16:36:00;996;;;16.9;37.1
12722;BME280;6425;50.316;8.114;2023-04-09T16:39:00;997;;;16.5;38.3
12722;BME280;6425;50.316;8.114;2023-04-09T16:42:00;996;;;17;36.8
12722;BME280;6425;50.316;8.114;2023-04-09T16:45:00;996;;;16.6;37
12722;BME280;6425;50.316;8.114;2023-04-09T16:48:00;996;;;16.1;38.7
12722;BME280;6425;50.316;8.114;2023-04-09T16:51:00;996;;;16.3;39.6
12722;BME280;6425;50.316;8.114;2023-04-09T16:54:00;996;;;15;42.1
12722;BME280;6425;50.316;8.114;2023-04-09T16:57:00;996;;;13.4;45
12722;BME280;6425;50.316;8.114;2023-04-09T17:00:00;996;;;13.6;43.9
12722;BME280;6425;50.316;8.114;2023-04-09T17:03:00;996;;;13.9;43.3
12722;BME280;6425;50.316;8.114;2023-04-09T17:06:00;997;;;13.8;44.5
12722;BME280;6425;50.316;8.114;2023-04-09T17:09:00;996;;;14;43.2
12722;BME280;6425;50.316;8.114;2023-04-09T17:12:00;997;;;14.4;43.3
12722;BME280;6425;50.316;8.114;2023-04-09T17:15:00;996;;;14.5;42.4
12722;BME280;6425;50.316;8.114;2023-04-09T17:18:00;997;;;14.1;43.1
12722;BME280;6425;50.316;8.114;2023-04-09T17:21:00;997;;;13.9;44.4
12722;BME280;6425;50.316;8.114;2023-04-09T17:24:00;997;;;13.5;45.8
12722;BME280;6425;50.316;8.114;2023-04-09T17:27:00;997;;;13.9;44.4
12722;BME280;6425;50.316;8.114;2023-04-09T17:30:00;997;;;14;43.7
12722;BME280;6425;50.316;8.114;2023-04-09T17:33:00;996;;;14.3;42.8
12722;BME280;6425;50.316;8.114;2023-04-09T17:36:00;997;;;14.4;43.6
12722;BME280;6425;50.316;8.114;2023-04-09T17:39:00;996;;;14.2;44.1
12722;BME280;6425;50.316;8.114;2023-04-09T17:42:00;997;;;13.8;45.2
12722;BME280;6425;50.316;8.114;2023-04-09T17:45:00;997;;;13.8;45.6
12722;BME280;6425;50.316;8.114;2023-04-09T17:48:00;997;;;13.9;45.9
12722;BME280;6425;50.316;8.114;2023-04-09T17:51:00;997;;;14.1;44.9
12722;BME280;6425;50.316;8.114;2023-04-09T17:54:00;997;;;13.9;45.5
12722;BME280;6425;50.316;8.114;2023-04-09T17:57:00;997;;;14.2;47.5
12722;BME280;6425;50.316;8.114;2023-04-09T18:00:00;996;;;14.2;49